sensor_id;sensor_type;location;lat;lon;timestamp;temperature;humidity
30999;DHT22;20549;50.042;8.968;2023-03-21T00:00:57;12.70;65.20
30999;DHT22;20549;50.042;8.968;2023-03-21T00:03:22;12.70;65.30
30999;DHT22;20549;50.042;8.968;2023-03-21T00:05:49;12.70;65.30
30999;DHT22;20549;50.042;8.968;2023-03-21T00:08:16;12.70;65.40
30999;DHT22;20549;50.042;8.968;2023-03-21T00:10:42;12.70;65.40
30999;DHT22;20549;50.042;8.968;2023-03-21T00:13:13;12.70;65.40
30999;DHT22;20549;50.042;8.968;2023-03-21T00:15:35;12.70;65.50
30999;DHT22;20549;50.042;8.968;2023-03-21T00:18:02;12.60;65.60
30999;DHT22;20549;50.042;8.968;2023-03-21T00:20:29;12.60;65.40
30999;DHT22;20549;50.042;8.968;2023-03-21T00:22:55;12.60;65.50
30999;DHT22;20549;50.042;8.968;2023-03-21T00:25:22;12.60;65.60
30999;DHT22;20549;50.042;8.968;2023-03-21T00:27:48;12.60;65.60
30999;DHT22;20549;50.042;8.968;2023-03-21T00:30:15;12.60;65.70
30999;DHT22;20549;50.042;8.968;2023-03-21T00:32:42;12.50;65.70
30999;DHT22;20549;50.042;8.968;2023-03-21T00:35:08;12.50;65.70
30999;DHT22;20549;50.042;8.968;2023-03-21T00:37:35;12.50;65.80
30999;DHT22;20549;50.042;8.968;2023-03-21T00:40:02;12.50;65.00
30999;DHT22;20549;50.042;8.968;2023-03-21T00:42:28;12.50;65.90
30999;DHT22;20549;50.042;8.968;2023-03-21T00:44:54;12.50;66.10
30999;DHT22;20549;50.042;8.968;2023-03-21T00:47:21;12.40;66.00
30999;DHT22;20549;50.042;8.968;2023-03-21T00:49:48;12.40;66.10
30999;DHT22;20549;50.042;8.968;2023-03-21T00:52:14;12.40;66.20
30999;DHT22;20549;50.042;8.968;2023-03-21T00:54:41;12.40;66.20
30999;DHT22;20549;50.042;8.968;2023-03-21T00:57:07;12.40;66.30
30999;DHT22;20549;50.042;8.968;2023-03-21T00:59:34;12.40;66.40
30999;DHT22;20549;50.042;8.968;2023-03-21T01:02:01;12.40;66.40
30999;DHT22;20549;50.042;8.968;2023-03-21T01:04:27;12.40;66.40
30999;DHT22;20549;50.042;8.968;2023-03-21T01:06:54;12.40;66.50
30999;DHT22;20549;50.042;8.968;2023-03-21T01:09:21;12.40;66.50
30999;DHT22;20549;50.042;8.968;2023-03-21T01:11:47;12.40;66.60
30999;DHT22;20549;50.042;8.968;2023-03-21T01:14:14;12.40;66.60
30999;DHT22;20549;50.042;8.968;2023-03-21T01:16:40;12.40;66.60
30999;DHT22;20549;50.042;8.968;2023-03-21T01:19:07;12.40;66.70
30999;DHT22;20549;50.042;8.968;2023-03-21T01:21:33;12.40;66.70
30999;DHT22;20549;50.042;8.968;2023-03-21T01:24:00;12.40;66.70
30999;DHT22;20549;50.042;8.968;2023-03-21T01:26:26;12.40;66.70
30999;DHT22;20549;50.042;8.968;2023-03-21T01:28:53;12.40;66.80
30999;DHT22;20549;50.042;8.968;2023-03-21T01:31:20;12.30;66.70
30999;DHT22;20549;50.042;8.968;2023-03-21T01:33:46;12.40;66.70
30999;DHT22;20549;50.042;8.968;2023-03-21T01:36:17;12.40;66.80
30999;DHT22;20549;50.042;8.968;2023-03-21T01:38:42;12.30;66.70
30999;DHT22;20549;50.042;8.968;2023-03-21T01:41:17;12.30;66.80
30999;DHT22;20549;50.042;8.968;2023-03-21T01:43:42;12.30;66.90
30999;DHT22;20549;50.042;8.968;2023-03-21T01:49:12;12.30;66.90
30999;DHT22;20549;50.042;8.968;2023-03-21T01:51:35;12.20;66.90
30999;DHT22;20549;50.042;8.968;2023-03-21T01:54:01;12.20;67.70
30999;DHT22;20549;50.042;8.968;2023-03-21T01:56:32;12.20;67.00
30999;DHT22;20549;50.042;8.968;2023-03-21T01:58:55;12.20;67.10
30999;DHT22;20549;50.042;8.968;2023-03-21T02:01:21;12.10;67.20
30999;DHT22;20549;50.042;8.968;2023-03-21T02:03:47;12.10;67.30
30999;DHT22;20549;50.042;8.968;2023-03-21T02:08:51;12.10;67.50
30999;DHT22;20549;50.042;8.968;2023-03-21T02:11:18;12.10;67.50
30999;DHT22;20549;50.042;8.968;2023-03-21T02:13:45;12.10;67.60
30999;DHT22;20549;50.042;8.968;2023-03-21T02:16:19;12.10;67.60
30999;DHT22;20549;50.042;8.968;2023-03-21T02:19:03;12.10;67.80
30999;DHT22;20549;50.042;8.968;2023-03-21T02:24:08;12.10;67.60
30999;DHT22;20549;50.042;8.968;2023-03-21T02:37:13;12.10;67.80
30999;DHT22;20549;50.042;8.968;2023-03-21T02:45:29;12.10;67.80
30999;DHT22;20549;50.042;8.968;2023-03-21T02:47:40;12.10;67.80
30999;DHT22;20549;50.042;8.968;2023-03-21T02:50:07;12.10;67.80
30999;DHT22;20549;50.042;8.968;2023-03-21T02:52:32;12.00;67.80
30999;DHT22;20549;50.042;8.968;2023-03-21T02:54:58;12.00;67.80
30999;DHT22;20549;50.042;8.968;2023-03-21T02:57:24;12.00;67.80
30999;DHT22;20549;50.042;8.968;2023-03-21T02:59:51;12.00;67.90
30999;DHT22;20549;50.042;8.968;2023-03-21T03:02:19;11.90;67.80
30999;DHT22;20549;50.042;8.968;2023-03-21T03:04:44;11.90;67.80
30999;DHT22;20549;50.042;8.968;2023-03-21T03:09:50;11.80;67.80
30999;DHT22;20549;50.042;8.968;2023-03-21T03:12:33;11.70;67.80
30999;DHT22;20549;50.042;8.968;2023-03-21T03:15:23;11.60;67.80
30999;DHT22;20549;50.042;8.968;2023-03-21T03:17:51;11.50;67.80
30999;DHT22;20549;50.042;8.968;2023-03-21T03:20:22;11.40;67.80
30999;DHT22;20549;50.042;8.968;2023-03-21T03:25:13;11.20;68.00
30999;DHT22;20549;50.042;8.968;2023-03-21T03:27:40;11.10;68.30
30999;DHT22;20549;50.042;8.968;2023-03-21T03:30:06;11.00;68.30
30999;DHT22;20549;50.042;8.968;2023-03-21T03:32:47;10.90;68.50
30999;DHT22;20549;50.042;8.968;2023-03-21T03:35:16;10.80;68.70
30999;DHT22;20549;50.042;8.968;2023-03-21T03:37:41;10.70;68.80
30999;DHT22;20549;50.042;8.968;2023-03-21T03:40:14;10.60;69.00
30999;DHT22;20549;50.042;8.968;2023-03-21T03:42:39;10.50;69.20
30999;DHT22;20549;50.042;8.968;2023-03-21T03:45:04;10.40;69.30
30999;DHT22;20549;50.042;8.968;2023-03-21T03:52:54;10.10;69.70
30999;DHT22;20549;50.042;8.968;2023-03-21T03:55:17;10.00;69.80
30999;DHT22;20549;50.042;8.968;2023-03-21T03:57:43;10.00;70.10
30999;DHT22;20549;50.042;8.968;2023-03-21T04:00:10;9.90;70.30
30999;DHT22;20549;50.042;8.968;2023-03-21T04:02:37;9.80;70.40
30999;DHT22;20549;50.042;8.968;2023-03-21T04:05:03;9.70;70.60
30999;DHT22;20549;50.042;8.968;2023-03-21T04:07:30;9.70;70.80
30999;DHT22;20549;50.042;8.968;2023-03-21T04:09:56;9.60;71.00
30999;DHT22;20549;50.042;8.968;2023-03-21T04:12:23;9.50;71.20
30999;DHT22;20549;50.042;8.968;2023-03-21T04:14:49;9.50;71.40
30999;DHT22;20549;50.042;8.968;2023-03-21T04:17:16;9.40;71.60
30999;DHT22;20549;50.042;8.968;2023-03-21T04:19:43;9.30;71.60
30999;DHT22;20549;50.042;8.968;2023-03-21T04:22:09;9.30;71.80
30999;DHT22;20549;50.042;8.968;2023-03-21T04:24:36;9.20;71.90
30999;DHT22;20549;50.042;8.968;2023-03-21T04:27:02;9.20;72.10
30999;DHT22;20549;50.042;8.968;2023-03-21T04:29:29;9.10;72.30
30999;DHT22;20549;50.042;8.968;2023-03-21T04:31:55;9.00;72.30
30999;DHT22;20549;50.042;8.968;2023-03-21T04:34:22;9.00;72.50
30999;DHT22;20549;50.042;8.968;2023-03-21T04:36:51;9.00;72.70
30999;DHT22;20549;50.042;8.968;2023-03-21T04:39:18;8.90;72.80
30999;DHT22;20549;50.042;8.968;2023-03-21T04:41:45;8.90;73.20
30999;DHT22;20549;50.042;8.968;2023-03-21T04:44:12;8.90;73.50
30999;DHT22;20549;50.042;8.968;2023-03-21T04:46:38;8.90;73.50
30999;DHT22;20549;50.042;8.968;2023-03-21T04:49:04;8.90;73.60
30999;DHT22;20549;50.042;8.968;2023-03-21T04:51:31;8.90;73.80
30999;DHT22;20549;50.042;8.968;2023-03-21T04:53:57;8.90;73.90
30999;DHT22;20549;50.042;8.968;2023-03-21T04:56:25;8.90;74.00
30999;DHT22;20549;50.042;8.968;2023-03-21T04:58:51;8.90;74.10
30999;DHT22;20549;50.042;8.968;2023-03-21T05:01:17;9.00;74.20
30999;DHT22;20549;50.042;8.968;2023-03-21T05:03:44;9.00;74.40
30999;DHT22;20549;50.042;8.968;2023-03-21T05:06:10;9.00;74.40
30999;DHT22;20549;50.042;8.968;2023-03-21T05:08:37;9.10;74.50
30999;DHT22;20549;50.042;8.968;2023-03-21T05:11:04;9.10;74.50
30999;DHT22;20549;50.042;8.968;2023-03-21T05:13:30;9.20;74.60
30999;DHT22;20549;50.042;8.968;2023-03-21T05:15:57;9.20;74.50
30999;DHT22;20549;50.042;8.968;2023-03-21T05:18:23;9.20;74.40
30999;DHT22;20549;50.042;8.968;2023-03-21T05:20:50;9.20;74.30
30999;DHT22;20549;50.042;8.968;2023-03-21T05:23:16;9.20;74.20
30999;DHT22;20549;50.042;8.968;2023-03-21T05:25:43;9.20;74.20
30999;DHT22;20549;50.042;8.968;2023-03-21T05:28:10;9.20;74.10
30999;DHT22;20549;50.042;8.968;2023-03-21T05:30:36;9.20;74.20
30999;DHT22;20549;50.042;8.968;2023-03-21T05:33:03;9.20;74.40
30999;DHT22;20549;50.042;8.968;2023-03-21T05:35:30;9.10;74.60
30999;DHT22;20549;50.042;8.968;2023-03-21T05:37:56;9.20;74.80
30999;DHT22;20549;50.042;8.968;2023-03-21T05:40:23;9.20;75.00
30999;DHT22;20549;50.042;8.968;2023-03-21T05:42:49;9.20;74.60
30999;DHT22;20549;50.042;8.968;2023-03-21T05:45:16;9.20;75.20
30999;DHT22;20549;50.042;8.968;2023-03-21T05:47:42;9.30;75.10
30999;DHT22;20549;50.042;8.968;2023-03-21T05:50:09;9.30;75.10
30999;DHT22;20549;50.042;8.968;2023-03-21T05:52:36;9.30;75.00
30999;DHT22;20549;50.042;8.968;2023-03-21T05:55:02;9.30;75.10
30999;DHT22;20549;50.042;8.968;2023-03-21T05:57:29;9.40;75.30
30999;DHT22;20549;50.042;8.968;2023-03-21T05:59:55;9.40;75.50
30999;DHT22;20549;50.042;8.968;2023-03-21T06:02:22;9.50;74.80
30999;DHT22;20549;50.042;8.968;2023-03-21T06:04:48;9.50;75.40
30999;DHT22;20549;50.042;8.968;2023-03-21T06:07:15;9.60;75.50
30999;DHT22;20549;50.042;8.968;2023-03-21T06:09:42;9.70;76.10
30999;DHT22;20549;50.042;8.968;2023-03-21T06:12:08;9.90;77.10
30999;DHT22;20549;50.042;8.968;2023-03-21T06:14:35;10.20;78.20
30999;DHT22;20549;50.042;8.968;2023-03-21T06:17:01;10.60;79.10
30999;DHT22;20549;50.042;8.968;2023-03-21T06:19:28;11.10;79.50
30999;DHT22;20549;50.042;8.968;2023-03-21T06:21:55;11.60;79.30
30999;DHT22;20549;50.042;8.968;2023-03-21T06:24:21;12.20;78.90
30999;DHT22;20549;50.042;8.968;2023-03-21T06:26:48;12.80;78.30
30999;DHT22;20549;50.042;8.968;2023-03-21T06:29:14;13.40;77.60
30999;DHT22;20549;50.042;8.968;2023-03-21T06:31:41;14.00;76.80
30999;DHT22;20549;50.042;8.968;2023-03-21T06:34:08;14.60;75.70
30999;DHT22;20549;50.042;8.968;2023-03-21T06:36:34;15.10;74.60
30999;DHT22;20549;50.042;8.968;2023-03-21T06:39:01;15.70;73.80
30999;DHT22;20549;50.042;8.968;2023-03-21T06:41:27;16.20;72.90
30999;DHT22;20549;50.042;8.968;2023-03-21T06:43:54;16.80;72.20
30999;DHT22;20549;50.042;8.968;2023-03-21T06:46:20;17.30;71.00
30999;DHT22;20549;50.042;8.968;2023-03-21T06:48:47;17.80;69.30
30999;DHT22;20549;50.042;8.968;2023-03-21T06:51:14;18.10;67.70
30999;DHT22;20549;50.042;8.968;2023-03-21T06:53:40;18.40;66.00
30999;DHT22;20549;50.042;8.968;2023-03-21T06:56:07;18.50;64.50
30999;DHT22;20549;50.042;8.968;2023-03-21T06:58:34;18.60;63.50
30999;DHT22;20549;50.042;8.968;2023-03-21T07:01:00;18.50;62.80
30999;DHT22;20549;50.042;8.968;2023-03-21T07:03:27;18.50;62.70
30999;DHT22;20549;50.042;8.968;2023-03-21T07:05:53;18.50;62.80
30999;DHT22;20549;50.042;8.968;2023-03-21T07:08:20;18.50;62.50
30999;DHT22;20549;50.042;8.968;2023-03-21T07:10:46;18.40;62.20
30999;DHT22;20549;50.042;8.968;2023-03-21T07:13:13;18.40;62.10
30999;DHT22;20549;50.042;8.968;2023-03-21T07:15:40;18.40;61.80
30999;DHT22;20549;50.042;8.968;2023-03-21T07:18:07;18.30;61.40
30999;DHT22;20549;50.042;8.968;2023-03-21T07:20:33;18.30;61.50
30999;DHT22;20549;50.042;8.968;2023-03-21T07:23:00;18.40;62.10
30999;DHT22;20549;50.042;8.968;2023-03-21T07:25:26;18.50;63.10
30999;DHT22;20549;50.042;8.968;2023-03-21T07:27:53;18.90;63.70
30999;DHT22;20549;50.042;8.968;2023-03-21T07:30:19;19.30;63.60
30999;DHT22;20549;50.042;8.968;2023-03-21T07:32:46;19.80;63.80
30999;DHT22;20549;50.042;8.968;2023-03-21T07:35:13;20.40;63.60
30999;DHT22;20549;50.042;8.968;2023-03-21T07:37:39;21.00;63.00
30999;DHT22;20549;50.042;8.968;2023-03-21T07:40:06;21.60;62.00
30999;DHT22;20549;50.042;8.968;2023-03-21T07:42:38;22.30;61.40
30999;DHT22;20549;50.042;8.968;2023-03-21T07:45:04;22.90;60.10
30999;DHT22;20549;50.042;8.968;2023-03-21T07:47:30;23.40;58.80
30999;DHT22;20549;50.042;8.968;2023-03-21T07:49:57;23.80;57.30
30999;DHT22;20549;50.042;8.968;2023-03-21T07:52:23;24.10;56.60
30999;DHT22;20549;50.042;8.968;2023-03-21T07:54:50;24.40;56.40
30999;DHT22;20549;50.042;8.968;2023-03-21T07:57:17;24.70;56.10
30999;DHT22;20549;50.042;8.968;2023-03-21T07:59:43;24.90;55.50
30999;DHT22;20549;50.042;8.968;2023-03-21T08:02:13;25.10;54.70
30999;DHT22;20549;50.042;8.968;2023-03-21T08:04:36;25.20;53.70
30999;DHT22;20549;50.042;8.968;2023-03-21T08:07:03;25.20;53.00
30999;DHT22;20549;50.042;8.968;2023-03-21T08:09:29;25.20;52.60
30999;DHT22;20549;50.042;8.968;2023-03-21T08:11:56;25.10;52.50
30999;DHT22;20549;50.042;8.968;2023-03-21T08:14:23;25.10;52.20
30999;DHT22;20549;50.042;8.968;2023-03-21T08:16:49;25.10;52.10
30999;DHT22;20549;50.042;8.968;2023-03-21T08:19:16;25.20;52.30
30999;DHT22;20549;50.042;8.968;2023-03-21T08:21:42;25.40;52.80
30999;DHT22;20549;50.042;8.968;2023-03-21T08:24:09;25.70;53.10
30999;DHT22;20549;50.042;8.968;2023-03-21T08:26:36;26.00;52.70
30999;DHT22;20549;50.042;8.968;2023-03-21T08:29:02;26.20;51.70
30999;DHT22;20549;50.042;8.968;2023-03-21T08:31:29;26.30;50.70
30999;DHT22;20549;50.042;8.968;2023-03-21T08:33:55;26.30;50.40
30999;DHT22;20549;50.042;8.968;2023-03-21T08:36:22;26.30;50.20
30999;DHT22;20549;50.042;8.968;2023-03-21T08:38:49;26.20;50.60
30999;DHT22;20549;50.042;8.968;2023-03-21T08:41:15;26.20;49.70
30999;DHT22;20549;50.042;8.968;2023-03-21T08:43:42;26.10;49.00
30999;DHT22;20549;50.042;8.968;2023-03-21T08:46:08;25.90;49.00
30999;DHT22;20549;50.042;8.968;2023-03-21T08:48:35;25.80;49.20
30999;DHT22;20549;50.042;8.968;2023-03-21T08:51:01;25.80;49.40
30999;DHT22;20549;50.042;8.968;2023-03-21T08:53:28;25.70;49.50
30999;DHT22;20549;50.042;8.968;2023-03-21T08:55:55;25.70;49.30
30999;DHT22;20549;50.042;8.968;2023-03-21T08:58:21;25.80;49.50
30999;DHT22;20549;50.042;8.968;2023-03-21T09:00:48;25.80;49.60
30999;DHT22;20549;50.042;8.968;2023-03-21T09:03:14;25.90;49.50
30999;DHT22;20549;50.042;8.968;2023-03-21T09:05:41;26.00;49.30
30999;DHT22;20549;50.042;8.968;2023-03-21T09:08:08;26.10;48.80
30999;DHT22;20549;50.042;8.968;2023-03-21T09:10:34;26.10;48.50
30999;DHT22;20549;50.042;8.968;2023-03-21T09:13:01;26.10;48.60
30999;DHT22;20549;50.042;8.968;2023-03-21T09:15:27;26.10;48.40
30999;DHT22;20549;50.042;8.968;2023-03-21T09:17:54;26.10;48.20
30999;DHT22;20549;50.042;8.968;2023-03-21T09:20:21;26.20;48.20
30999;DHT22;20549;50.042;8.968;2023-03-21T09:22:47;26.20;47.30
30999;DHT22;20549;50.042;8.968;2023-03-21T09:25:14;26.30;48.00
30999;DHT22;20549;50.042;8.968;2023-03-21T09:27:40;26.50;48.40
30999;DHT22;20549;50.042;8.968;2023-03-21T09:30:08;26.80;48.50
30999;DHT22;20549;50.042;8.968;2023-03-21T09:32:35;27.10;48.40
30999;DHT22;20549;50.042;8.968;2023-03-21T09:35:01;27.40;47.30
30999;DHT22;20549;50.042;8.968;2023-03-21T09:37:28;27.50;46.30
30999;DHT22;20549;50.042;8.968;2023-03-21T09:39:55;27.60;46.30
30999;DHT22;20549;50.042;8.968;2023-03-21T09:45:15;27.60;45.80
30999;DHT22;20549;50.042;8.968;2023-03-21T09:47:45;27.60;46.50
30999;DHT22;20549;50.042;8.968;2023-03-21T09:50:12;27.40;44.80
30999;DHT22;20549;50.042;8.968;2023-03-21T09:53:22;27.30;44.50
30999;DHT22;20549;50.042;8.968;2023-03-21T09:55:22;27.00;43.90
30999;DHT22;20549;50.042;8.968;2023-03-21T09:57:49;26.70;43.80
30999;DHT22;20549;50.042;8.968;2023-03-21T10:00:19;26.30;44.20
30999;DHT22;20549;50.042;8.968;2023-03-21T10:02:45;25.90;44.30
30999;DHT22;20549;50.042;8.968;2023-03-21T10:05:12;25.50;44.20
30999;DHT22;20549;50.042;8.968;2023-03-21T10:07:41;25.20;44.40
30999;DHT22;20549;50.042;8.968;2023-03-21T10:10:04;24.90;44.50
30999;DHT22;20549;50.042;8.968;2023-03-21T10:12:31;24.60;44.70
30999;DHT22;20549;50.042;8.968;2023-03-21T10:14:57;24.30;45.10
30999;DHT22;20549;50.042;8.968;2023-03-21T10:17:34;24.00;45.40
30999;DHT22;20549;50.042;8.968;2023-03-21T10:22:41;23.50;45.80
30999;DHT22;20549;50.042;8.968;2023-03-21T10:25:10;23.20;45.90
30999;DHT22;20549;50.042;8.968;2023-03-21T10:27:34;23.00;46.20
30999;DHT22;20549;50.042;8.968;2023-03-21T10:30:02;22.70;46.30
30999;DHT22;20549;50.042;8.968;2023-03-21T10:32:28;22.50;46.60
30999;DHT22;20549;50.042;8.968;2023-03-21T10:34:54;22.30;46.90
30999;DHT22;20549;50.042;8.968;2023-03-21T10:37:21;22.10;46.90
30999;DHT22;20549;50.042;8.968;2023-03-21T10:39:48;21.90;47.10
30999;DHT22;20549;50.042;8.968;2023-03-21T10:42:21;21.70;47.30
30999;DHT22;20549;50.042;8.968;2023-03-21T10:44:47;21.50;47.50
30999;DHT22;20549;50.042;8.968;2023-03-21T10:47:14;21.30;47.70
30999;DHT22;20549;50.042;8.968;2023-03-21T10:49:39;21.10;47.90
30999;DHT22;20549;50.042;8.968;2023-03-21T10:52:07;20.90;48.10
30999;DHT22;20549;50.042;8.968;2023-03-21T10:54:33;20.80;48.40
30999;DHT22;20549;50.042;8.968;2023-03-21T10:57:03;20.70;48.60
30999;DHT22;20549;50.042;8.968;2023-03-21T10:59:33;20.60;48.80
30999;DHT22;20549;50.042;8.968;2023-03-21T11:01:55;20.40;48.90
30999;DHT22;20549;50.042;8.968;2023-03-21T11:04:25;20.40;49.10
30999;DHT22;20549;50.042;8.968;2023-03-21T11:06:55;20.30;49.30
30999;DHT22;20549;50.042;8.968;2023-03-21T11:09:22;20.20;49.50
30999;DHT22;20549;50.042;8.968;2023-03-21T11:12:03;20.20;49.60
30999;DHT22;20549;50.042;8.968;2023-03-21T11:14:39;20.10;49.70
30999;DHT22;20549;50.042;8.968;2023-03-21T11:19:49;20.00;49.80
30999;DHT22;20549;50.042;8.968;2023-03-21T11:22:15;20.00;50.00
30999;DHT22;20549;50.042;8.968;2023-03-21T11:24:42;20.00;50.30
30999;DHT22;20549;50.042;8.968;2023-03-21T11:27:08;20.00;50.30
30999;DHT22;20549;50.042;8.968;2023-03-21T11:29:38;20.00;50.50
30999;DHT22;20549;50.042;8.968;2023-03-21T11:32:10;20.00;50.70
30999;DHT22;20549;50.042;8.968;2023-03-21T11:34:46;20.10;51.00
30999;DHT22;20549;50.042;8.968;2023-03-21T11:37:16;20.00;51.10
30999;DHT22;20549;50.042;8.968;2023-03-21T11:39:36;20.00;51.30
30999;DHT22;20549;50.042;8.968;2023-03-21T11:42:02;20.00;51.60
30999;DHT22;20549;50.042;8.968;2023-03-21T11:44:30;20.00;51.80
30999;DHT22;20549;50.042;8.968;2023-03-21T11:46:55;19.90;51.80
30999;DHT22;20549;50.042;8.968;2023-03-21T11:49:22;19.90;52.30
30999;DHT22;20549;50.042;8.968;2023-03-21T11:54:25;19.80;52.80
30999;DHT22;20549;50.042;8.968;2023-03-21T11:56:51;19.80;53.00
30999;DHT22;20549;50.042;8.968;2023-03-21T11:59:37;19.70;53.00
30999;DHT22;20549;50.042;8.968;2023-03-21T12:07:47;19.40;53.30
30999;DHT22;20549;50.042;8.968;2023-03-21T12:10:35;19.30;53.60
30999;DHT22;20549;50.042;8.968;2023-03-21T12:13:04;19.30;53.90
30999;DHT22;20549;50.042;8.968;2023-03-21T12:16:17;19.10;54.00
30999;DHT22;20549;50.042;8.968;2023-03-21T12:18:23;19.00;54.30
30999;DHT22;20549;50.042;8.968;2023-03-21T12:20:52;19.00;54.60
30999;DHT22;20549;50.042;8.968;2023-03-21T12:23:38;18.90;54.50
30999;DHT22;20549;50.042;8.968;2023-03-21T12:28:32;18.70;54.80
30999;DHT22;20549;50.042;8.968;2023-03-21T12:35:57;18.40;55.70
30999;DHT22;20549;50.042;8.968;2023-03-21T12:38:22;18.30;56.00
30999;DHT22;20549;50.042;8.968;2023-03-21T12:43:55;18.20;56.60
30999;DHT22;20549;50.042;8.968;2023-03-21T12:48:49;18.10;57.30
30999;DHT22;20549;50.042;8.968;2023-03-21T12:51:16;18.00;57.40
30999;DHT22;20549;50.042;8.968;2023-03-21T12:53:48;18.00;57.30
30999;DHT22;20549;50.042;8.968;2023-03-21T12:56:21;18.00;57.50
30999;DHT22;20549;50.042;8.968;2023-03-21T12:58:47;18.00;57.80
30999;DHT22;20549;50.042;8.968;2023-03-21T13:01:09;18.00;58.00
30999;DHT22;20549;50.042;8.968;2023-03-21T13:03:41;18.00;58.30
30999;DHT22;20549;50.042;8.968;2023-03-21T13:06:13;18.00;58.60
30999;DHT22;20549;50.042;8.968;2023-03-21T13:08:47;18.10;58.70
30999;DHT22;20549;50.042;8.968;2023-03-21T13:11:20;18.10;58.40
30999;DHT22;20549;50.042;8.968;2023-03-21T13:16:22;18.30;58.40
30999;DHT22;20549;50.042;8.968;2023-03-21T13:24:24;18.40;58.00
30999;DHT22;20549;50.042;8.968;2023-03-21T13:27:35;18.40;58.00
30999;DHT22;20549;50.042;8.968;2023-03-21T13:29:26;18.40;57.30
30999;DHT22;20549;50.042;8.968;2023-03-21T13:31:52;18.40;57.80
30999;DHT22;20549;50.042;8.968;2023-03-21T13:34:21;18.40;57.80
30999;DHT22;20549;50.042;8.968;2023-03-21T13:36:48;18.30;57.90
30999;DHT22;20549;50.042;8.968;2023-03-21T13:39:27;18.30;58.20
30999;DHT22;20549;50.042;8.968;2023-03-21T13:41:44;18.20;58.20
30999;DHT22;20549;50.042;8.968;2023-03-21T13:46:43;18.10;58.30
30999;DHT22;20549;50.042;8.968;2023-03-21T13:56:30;17.70;58.60
30999;DHT22;20549;50.042;8.968;2023-03-21T13:58:59;17.60;58.60
30999;DHT22;20549;50.042;8.968;2023-03-21T14:01:30;17.60;59.20
30999;DHT22;20549;50.042;8.968;2023-03-21T14:04:18;17.50;59.50
30999;DHT22;20549;50.042;8.968;2023-03-21T14:07:07;17.40;59.70
30999;DHT22;20549;50.042;8.968;2023-03-21T14:09:34;17.40;60.00
30999;DHT22;20549;50.042;8.968;2023-03-21T14:11:59;17.30;60.00
30999;DHT22;20549;50.042;8.968;2023-03-21T14:14:29;17.30;60.50
30999;DHT22;20549;50.042;8.968;2023-03-21T14:16:52;17.20;60.60
30999;DHT22;20549;50.042;8.968;2023-03-21T14:19:19;17.20;60.70
30999;DHT22;20549;50.042;8.968;2023-03-21T14:21:49;17.10;61.00
30999;DHT22;20549;50.042;8.968;2023-03-21T14:24:15;17.00;61.20
30999;DHT22;20549;50.042;8.968;2023-03-21T14:26:52;17.00;61.40
30999;DHT22;20549;50.042;8.968;2023-03-21T14:29:30;17.00;61.70
30999;DHT22;20549;50.042;8.968;2023-03-21T14:31:56;16.90;61.90
30999;DHT22;20549;50.042;8.968;2023-03-21T14:34:22;16.90;62.10
30999;DHT22;20549;50.042;8.968;2023-03-21T14:36:49;16.80;62.20
30999;DHT22;20549;50.042;8.968;2023-03-21T14:39:19;16.80;62.50
30999;DHT22;20549;50.042;8.968;2023-03-21T14:41:49;16.70;62.70
30999;DHT22;20549;50.042;8.968;2023-03-21T14:44:13;16.70;62.70
30999;DHT22;20549;50.042;8.968;2023-03-21T14:46:38;16.60;62.70
30999;DHT22;20549;50.042;8.968;2023-03-21T14:49:18;16.60;62.90
30999;DHT22;20549;50.042;8.968;2023-03-21T14:51:43;16.50;63.20
30999;DHT22;20549;50.042;8.968;2023-03-21T14:54:10;16.40;63.20
30999;DHT22;20549;50.042;8.968;2023-03-21T14:56:36;16.30;63.40
30999;DHT22;20549;50.042;8.968;2023-03-21T14:59:03;16.20;63.10
30999;DHT22;20549;50.042;8.968;2023-03-21T15:01:31;16.20;64.80
30999;DHT22;20549;50.042;8.968;2023-03-21T15:03:56;16.10;64.20
30999;DHT22;20549;50.042;8.968;2023-03-21T15:06:23;16.00;64.30
30999;DHT22;20549;50.042;8.968;2023-03-21T15:08:53;15.90;64.50
30999;DHT22;20549;50.042;8.968;2023-03-21T15:11:18;15.80;64.80
30999;DHT22;20549;50.042;8.968;2023-03-21T15:13:48;15.60;65.40
30999;DHT22;20549;50.042;8.968;2023-03-21T15:16:15;15.50;65.60
30999;DHT22;20549;50.042;8.968;2023-03-21T15:18:41;15.40;66.00
30999;DHT22;20549;50.042;8.968;2023-03-21T15:21:12;15.30;66.30
30999;DHT22;20549;50.042;8.968;2023-03-21T15:23:40;15.20;66.70
30999;DHT22;20549;50.042;8.968;2023-03-21T15:26:03;15.20;67.10
30999;DHT22;20549;50.042;8.968;2023-03-21T15:28:31;15.10;67.30
30999;DHT22;20549;50.042;8.968;2023-03-21T15:30:57;15.00;67.80
30999;DHT22;20549;50.042;8.968;2023-03-21T15:33:24;14.90;68.10
30999;DHT22;20549;50.042;8.968;2023-03-21T15:35:51;14.80;68.50
30999;DHT22;20549;50.042;8.968;2023-03-21T15:38:23;14.80;69.10
30999;DHT22;20549;50.042;8.968;2023-03-21T15:40:48;14.70;69.30
30999;DHT22;20549;50.042;8.968;2023-03-21T15:43:16;14.60;69.30
30999;DHT22;20549;50.042;8.968;2023-03-21T15:45:48;14.60;69.90
30999;DHT22;20549;50.042;8.968;2023-03-21T15:48:14;14.60;70.50
30999;DHT22;20549;50.042;8.968;2023-03-21T15:50:42;14.50;70.80
30999;DHT22;20549;50.042;8.968;2023-03-21T15:53:10;14.60;71.20
30999;DHT22;20549;50.042;8.968;2023-03-21T15:55:56;14.60;71.50
30999;DHT22;20549;50.042;8.968;2023-03-21T15:58:12;14.60;71.80
30999;DHT22;20549;50.042;8.968;2023-03-21T16:00:39;14.60;72.00
30999;DHT22;20549;50.042;8.968;2023-03-21T16:03:06;14.60;72.10
30999;DHT22;20549;50.042;8.968;2023-03-21T16:05:32;14.60;72.20
30999;DHT22;20549;50.042;8.968;2023-03-21T16:08:03;14.70;72.40
30999;DHT22;20549;50.042;8.968;2023-03-21T16:10:29;14.70;72.20
30999;DHT22;20549;50.042;8.968;2023-03-21T16:12:54;14.70;72.40
30999;DHT22;20549;50.042;8.968;2023-03-21T16:15:21;14.70;72.40
30999;DHT22;20549;50.042;8.968;2023-03-21T16:17:49;14.70;72.20
30999;DHT22;20549;50.042;8.968;2023-03-21T16:20:17;14.70;72.30
30999;DHT22;20549;50.042;8.968;2023-03-21T16:22:40;14.70;72.20
30999;DHT22;20549;50.042;8.968;2023-03-21T16:25:07;14.60;72.00
30999;DHT22;20549;50.042;8.968;2023-03-21T16:27:34;14.60;72.10
30999;DHT22;20549;50.042;8.968;2023-03-21T16:30:00;14.60;72.50
30999;DHT22;20549;50.042;8.968;2023-03-21T16:32:27;14.60;72.80
30999;DHT22;20549;50.042;8.968;2023-03-21T16:34:53;14.50;73.00
30999;DHT22;20549;50.042;8.968;2023-03-21T16:37:20;14.50;73.30
30999;DHT22;20549;50.042;8.968;2023-03-21T16:39:47;14.60;73.60
30999;DHT22;20549;50.042;8.968;2023-03-21T16:42:13;14.50;73.80
30999;DHT22;20549;50.042;8.968;2023-03-21T16:44:40;14.50;73.80
30999;DHT22;20549;50.042;8.968;2023-03-21T16:47:16;14.50;73.80
30999;DHT22;20549;50.042;8.968;2023-03-21T16:49:39;14.50;73.90
30999;DHT22;20549;50.042;8.968;2023-03-21T16:52:05;14.50;74.10
30999;DHT22;20549;50.042;8.968;2023-03-21T16:54:32;14.50;74.20
30999;DHT22;20549;50.042;8.968;2023-03-21T16:56:59;14.50;74.40